PORT of KERKYRA

Country: Greece Country: Greece (GR)
Latitude / Longitude: 39.62925° / 19.90909° Show on Map Show on Map
Local Time:  UTC +3
UN/LOCODE: GRCFU
Vessels in Port: 6
Expected Arrivals: 3

Recent Arrivals & Departures


Vessel Name
Arrival (UTC)
Arrival (LT)
Departure (UTC)
Departure (LT)
Vessel Type: Passenger Vessels  PRINSENDAM 2014-10-01 13:47:00 2014-10-01 16:47:00 2014-10-01 14:02:00 2014-10-01 17:02:00
Vessel Type: Passenger Vessels  AGIA EIRINI 2014-10-01 14:01:00 2014-10-01 17:01:00
Vessel Type: Cargo Vessels  NANTI 2014-10-01 12:12:00 2014-10-01 15:12:00 2014-10-01 13:40:00 2014-10-01 16:40:00
Vessel Type: Passenger Vessels  KERKYRA 2014-10-01 13:09:00 2014-10-01 16:09:00
Vessel Type: Passenger Vessels  ELENI 2014-10-01 11:13:00 2014-10-01 14:13:00 2014-10-01 12:44:00 2014-10-01 15:44:00
Vessel Type: Passenger Vessels  NIKOLAOS 2014-09-30 21:47:00 2014-10-01 00:47:00 2014-10-01 12:09:00 2014-10-01 15:09:00
Vessel Type: Passenger Vessels  DESPINA P 2014-10-01 06:07:00 2014-10-01 09:07:00 2014-10-01 11:36:00 2014-10-01 14:36:00
Vessel Type: Passenger Vessels  ANO HORA II 2014-10-01 10:06:00 2014-10-01 13:06:00 2014-10-01 11:23:00 2014-10-01 14:23:00
Vessel Type: High Speed Craft  KRISTI 2014-09-30 09:16:00 2014-09-30 12:16:00 2014-10-01 11:07:00 2014-10-01 14:07:00
Vessel Type: Passenger Vessels  COSTA FASCINOSA 2014-09-24 04:29:00 2014-09-24 07:29:00 2014-10-01 10:27:00 2014-10-01 13:27:00

Expected Arrivals


Vessel Name
Scheduled Arrival (UTC)
Scheduled Arrival (LT)
Estimated Arrival (UTC)
Estimated Arrival (LT)
Vessel Type: Yachts & Others  ANAKENA 2014-10-01 12:00:00 2014-10-01 15:00:00 2014-10-01 12:26:00 2014-10-01 15:26:00
Vessel Type: Passenger Vessels  IONIAN SUN 2014-10-01 12:30:00 2014-10-01 15:30:00 2014-10-01 13:42:00 2014-10-01 16:42:00
Vessel Type: Passenger Vessels  NIREAS 2014-10-01 18:15:00 2014-10-01 21:15:00 2014-10-01 16:28:00 2014-10-01 19:28:00

Wind Forecast


    
Time (UTC)
Speed
Direction
Temperature
2014-10-01 12:00:00 9 knots 309° 23°C
2014-10-01 15:00:00 10 knots 322° 23°C
2014-10-01 18:00:00 8 knots 330° 21°C
2014-10-01 21:00:00 5 knots 74° 21°C
2014-10-02 00:00:00 7 knots 98° 20°C
2014-10-02 03:00:00 9 knots 96° 20°C
2014-10-02 06:00:00 7 knots 105° 20°C
2014-10-02 09:00:00 4 knots 238° 21°C
2014-10-02 12:00:00 5 knots 294° 22°C
2014-10-02 15:00:00 6 knots 309° 22°C
2014-10-02 18:00:00 5 knots 353° 21°C
2014-10-02 21:00:00 9 knots 95° 21°C
2014-10-03 00:00:00 12 knots 98° 20°C
2014-10-03 03:00:00 13 knots 102° 20°C
2014-10-03 06:00:00 12 knots 103° 20°C
2014-10-03 09:00:00 8 knots 163° 22°C
2014-10-03 12:00:00 6 knots 237° 23°C